Time;durP1;ratioP1;P1;durP2;ratioP2;P2;SDS_P1;SDS_P2;PMS_P1;PMS_P2;Temp;Humidity;BMP_temperature;BMP_pressure;BME280_temperature;BME280_humidity;BME280_pressure;Samples;Min_cycle;Max_cycle;Signal;HPM_P1;HPM_P2
2023/10/08 00:00:49;;;;;;;18.23;6.40;;;;;;;9.50;100.00;99789.94;4213941;28;20342;-64
2023/10/08 00:03:20;;;;;;;18.13;6.00;;;;;;;9.61;100.00;99786.97;4217105;28;20249;-65
2023/10/08 00:05:49;;;;;;;19.43;6.83;;;;;;;9.45;100.00;99773.31;4209234;28;20301;-65
2023/10/08 00:08:16;;;;;;;25.67;6.33;;;;;;;9.49;100.00;99772.03;4219273;28;20558;-63
2023/10/08 00:10:44;;;;;;;14.87;6.30;;;;;;;9.50;100.00;99769.16;4215114;28;20232;-63
2023/10/08 00:13:12;;;;;;;24.23;6.77;;;;;;;9.45;100.00;99784.13;4223083;28;20269;-64
2023/10/08 00:15:51;;;;;;;20.13;6.57;;;;;;;9.43;100.00;99780.75;4210274;28;20259;-64
2023/10/08 00:18:19;;;;;;;21.07;6.87;;;;;;;9.40;100.00;99770.25;4207331;28;20325;-63
2023/10/08 00:21:15;;;;;;;21.90;6.47;;;;;;;9.48;100.00;99768.47;4227878;28;20418;-65
2023/10/08 00:23:52;;;;;;;22.70;7.00;;;;;;;9.36;100.00;99762.44;4211955;28;20251;-63
2023/10/08 00:26:27;;;;;;;21.43;6.60;;;;;;;9.33;100.00;99757.38;4210015;28;20243;-63
2023/10/08 00:29:15;;;;;;;23.53;6.83;;;;;;;9.32;100.00;99755.69;4214783;28;20478;-64
2023/10/08 00:31:45;;;;;;;16.77;6.93;;;;;;;9.29;100.00;99741.63;4212343;28;22031;-62
2023/10/08 00:34:13;;;;;;;21.50;6.50;;;;;;;9.27;100.00;99755.31;4211342;28;20240;-62
2023/10/08 00:36:41;;;;;;;23.13;7.20;;;;;;;9.37;100.00;99771.41;4210890;28;22329;-64
2023/10/08 00:39:13;;;;;;;19.53;6.87;;;;;;;9.45;100.00;99766.09;4210579;28;20462;-64
2023/10/08 00:41:43;;;;;;;14.30;6.30;;;;;;;9.45;100.00;99767.91;4209649;28;22283;-64
2023/10/08 00:44:14;;;;;;;16.87;6.37;;;;;;;9.47;100.00;99777.59;4212074;28;20244;-64
2023/10/08 00:46:47;;;;;;;15.70;6.63;;;;;;;9.56;100.00;99772.22;4212285;28;21089;-64
2023/10/08 00:52:53;;;;;;;21.67;6.43;;;;;;;9.43;100.00;99748.34;4215371;28;20302;-64
2023/10/08 00:55:05;;;;;;;17.97;5.57;;;;;;;9.47;100.00;99747.88;4200727;28;20236;-62
2023/10/08 00:57:37;;;;;;;23.70;6.53;;;;;;;9.42;100.00;99746.66;4225128;28;20240;-63
2023/10/08 01:00:15;;;;;;;22.97;6.93;;;;;;;9.47;100.00;99737.06;4215080;28;20243;-62
2023/10/08 01:05:23;;;;;;;27.83;6.57;;;;;;;9.48;100.00;99773.03;4210609;28;20299;-63
2023/10/08 01:07:52;;;;;;;20.20;6.97;;;;;;;9.42;100.00;99755.59;4212889;28;21338;-62
2023/10/08 01:10:20;;;;;;;17.90;6.00;;;;;;;9.47;100.00;99758.69;4212804;28;20235;-64
2023/10/08 01:13:05;;;;;;;23.00;6.90;;;;;;;9.44;100.00;99768.94;4218452;28;20280;-62
2023/10/08 01:15:35;;;;;;;23.37;7.20;;;;;;;9.49;100.00;99756.66;4209989;28;20683;-63
2023/10/08 01:18:05;;;;;;;22.37;6.53;;;;;;;9.43;100.00;99751.88;4202151;28;20236;-63
2023/10/08 01:20:38;;;;;;;15.93;6.87;;;;;;;9.32;100.00;99752.97;4219951;28;20248;-62
2023/10/08 01:23:13;;;;;;;25.97;6.00;;;;;;;9.31;100.00;99748.56;4219934;28;20312;-63
2023/10/08 01:25:41;;;;;;;18.60;5.83;;;;;;;9.37;100.00;99757.91;4213472;28;20303;-65
2023/10/08 01:28:15;;;;;;;15.60;7.23;;;;;;;9.32;100.00;99746.75;4207735;28;20237;-63
2023/10/08 01:30:46;;;;;;;16.87;6.03;;;;;;;9.38;100.00;99734.44;4221988;28;20248;-62
2023/10/08 01:33:15;;;;;;;23.27;6.93;;;;;;;9.23;100.00;99726.06;4212020;28;20636;-63
2023/10/08 01:35:42;;;;;;;23.40;6.83;;;;;;;9.27;100.00;99733.69;4212425;28;20296;-63
2023/10/08 01:38:13;;;;;;;20.20;7.47;;;;;;;9.21;100.00;99742.44;4209722;28;20601;-62
2023/10/08 01:40:41;;;;;;;16.93;7.13;;;;;;;9.28;100.00;99748.91;4215658;28;20240;-64
2023/10/08 01:43:10;;;;;;;19.10;7.17;;;;;;;9.32;100.00;99754.84;4213654;28;20267;-62
2023/10/08 01:45:40;;;;;;;18.57;6.73;;;;;;;9.32;100.00;99761.09;4207052;28;21165;-63
2023/10/08 01:48:09;;;;;;;20.70;7.90;;;;;;;9.45;100.00;99781.44;4216338;28;20228;-62
2023/10/08 01:50:39;;;;;;;28.13;6.80;;;;;;;9.38;100.00;99796.56;4214960;28;20241;-63
2023/10/08 01:53:09;;;;;;;25.87;7.30;;;;;;;9.45;100.00;99797.63;4210758;28;20240;-62
2023/10/08 01:55:45;;;;;;;21.03;6.63;;;;;;;9.51;100.00;99788.94;4210129;28;20291;-64
2023/10/08 01:58:13;;;;;;;21.93;7.87;;;;;;;9.35;100.00;99782.38;4210199;28;20450;-64
2023/10/08 02:00:45;;;;;;;20.07;7.77;;;;;;;9.29;100.00;99782.16;4207876;28;20270;-61
2023/10/08 02:03:16;;;;;;;22.60;7.37;;;;;;;9.25;100.00;99784.31;4206682;28;20700;-64
2023/10/08 02:05:43;;;;;;;22.70;7.83;;;;;;;9.27;100.00;99779.63;4210154;28;22340;-64
2023/10/08 02:08:14;;;;;;;25.77;7.57;;;;;;;9.42;100.00;99773.66;4216095;28;21154;-64
2023/10/08 02:10:47;;;;;;;24.97;7.37;;;;;;;9.43;100.00;99780.75;4208918;28;20261;-66
2023/10/08 02:13:14;;;;;;;28.37;8.30;;;;;;;9.37;100.00;99790.34;4212353;28;20687;-65
2023/10/08 02:15:44;;;;;;;16.30;7.20;;;;;;;9.33;100.00;99776.28;4210441;28;20232;-64
2023/10/08 02:18:10;;;;;;;18.17;7.33;;;;;;;9.23;100.00;99788.19;4207330;28;20799;-63
2023/10/08 02:20:39;;;;;;;22.30;8.40;;;;;;;9.28;100.00;99781.31;4227693;28;20239;-64
2023/10/08 02:23:06;;;;;;;17.73;7.90;;;;;;;9.25;100.00;99786.19;4209905;28;20295;-67
2023/10/08 02:25:35;;;;;;;21.73;7.97;;;;;;;9.22;100.00;99800.81;4215119;28;21374;-64
2023/10/08 02:28:03;;;;;;;26.03;8.13;;;;;;;9.27;100.00;99789.56;4213584;28;20258;-65
2023/10/08 02:30:30;;;;;;;27.63;8.30;;;;;;;9.34;100.00;99802.31;4208329;28;20303;-64
2023/10/08 02:32:58;;;;;;;23.57;7.80;;;;;;;9.30;100.00;99809.00;4210077;28;20238;-64
2023/10/08 02:35:26;;;;;;;18.30;7.50;;;;;;;9.25;100.00;99835.63;4221031;28;20239;-66
2023/10/08 02:37:57;;;;;;;22.23;8.10;;;;;;;9.20;100.00;99829.84;4214146;28;22270;-65
2023/10/08 02:40:26;;;;;;;25.40;7.77;;;;;;;9.23;100.00;99848.44;4196761;28;20326;-64
2023/10/08 02:42:58;;;;;;;24.00;7.57;;;;;;;9.28;100.00;99832.63;4206826;28;21636;-65
2023/10/08 02:45:29;;;;;;;22.37;8.03;;;;;;;9.24;100.00;99844.72;4225338;28;20239;-66
2023/10/08 02:47:57;;;;;;;24.53;8.13;;;;;;;9.38;100.00;99851.47;4215400;28;20234;-65
2023/10/08 02:50:27;;;;;;;22.67;7.77;;;;;;;9.29;100.00;99841.56;4196463;28;20303;-64
2023/10/08 02:53:03;;;;;;;23.37;7.60;;;;;;;9.41;100.00;99853.84;4214435;28;25277;-65
2023/10/08 02:55:35;;;;;;;23.97;7.60;;;;;;;9.31;100.00;99861.19;4209224;28;20651;-64
2023/10/08 02:58:02;;;;;;;20.93;7.53;;;;;;;9.35;100.00;99849.06;4212256;28;20250;-64
2023/10/08 03:00:30;;;;;;;22.57;6.77;;;;;;;9.34;100.00;99845.53;4212323;28;20255;-65
2023/10/08 03:03:01;;;;;;;24.67;8.30;;;;;;;9.25;100.00;99861.81;4212514;28;20238;-62
2023/10/08 03:05:35;;;;;;;21.03;7.23;;;;;;;9.20;100.00;99856.84;4213708;28;20280;-64
2023/10/08 03:08:10;;;;;;;20.23;7.03;;;;;;;9.33;100.00;99854.63;4220345;28;20527;-65
2023/10/08 03:10:38;;;;;;;17.37;6.33;;;;;;;9.26;100.00;99853.53;4208687;28;20227;-65
2023/10/08 03:13:05;;;;;;;19.87;5.80;;;;;;;9.26;100.00;99858.94;4219702;28;20274;-66
2023/10/08 03:15:57;;;;;;;19.90;5.97;;;;;;;9.24;99.79;99858.22;4214153;28;20832;-65
2023/10/08 03:18:24;;;;;;;16.87;5.50;;;;;;;9.17;99.15;99876.06;4221585;28;20381;-64
2023/10/08 03:20:51;;;;;;;14.70;5.67;;;;;;;9.16;98.89;99871.66;4212272;28;22537;-64
2023/10/08 03:23:33;;;;;;;13.73;5.30;;;;;;;9.12;98.75;99862.16;4215001;28;23532;-65
2023/10/08 03:26:11;;;;;;;19.47;5.13;;;;;;;9.22;98.61;99862.09;4209115;28;21754;-64
2023/10/08 03:28:41;;;;;;;17.00;4.87;;;;;;;9.14;98.29;99874.50;4218010;28;20227;-64
2023/10/08 03:31:16;;;;;;;14.40;4.93;;;;;;;9.31;98.06;99877.38;4216489;28;20403;-64
2023/10/08 03:33:48;;;;;;;14.93;4.40;;;;;;;9.24;97.21;99885.25;4211726;28;20231;-65
2023/10/08 03:36:21;;;;;;;15.37;4.40;;;;;;;9.35;97.26;99892.28;4207001;28;22251;-65
2023/10/08 03:38:51;;;;;;;16.23;4.67;;;;;;;9.36;96.71;99889.41;4222183;28;20307;-65
2023/10/08 03:41:27;;;;;;;16.90;4.40;;;;;;;9.14;94.25;99896.13;4214645;28;21385;-65
2023/10/08 03:44:01;;;;;;;16.17;3.50;;;;;;;9.12;93.78;99899.97;4213438;28;20236;-65
2023/10/08 03:46:39;;;;;;;14.23;3.50;;;;;;;9.09;94.34;99894.84;4206939;28;20235;-66
2023/10/08 03:49:15;;;;;;;14.70;3.70;;;;;;;9.19;93.51;99904.59;4206607;28;25746;-65
2023/10/08 03:51:44;;;;;;;12.73;3.53;;;;;;;9.24;92.14;99908.72;4213602;28;20231;-64
2023/10/08 03:54:29;;;;;;;10.50;3.07;;;;;;;9.13;91.27;99926.81;4212921;28;20372;-62
2023/10/08 03:56:56;;;;;;;9.23;2.47;;;;;;;9.26;88.94;99922.88;4203595;28;20233;-63
2023/10/08 03:59:31;;;;;;;10.73;2.33;;;;;;;9.15;88.32;99918.56;4222013;28;22880;-65
2023/10/08 04:02:07;;;;;;;7.70;2.30;;;;;;;9.04;87.64;99933.09;4214557;28;20266;-65
2023/10/08 04:04:49;;;;;;;9.13;2.40;;;;;;;9.11;87.69;99942.31;4219235;28;20741;-63
2023/10/08 04:07:46;;;;;;;8.70;2.00;;;;;;;9.10;84.92;99937.06;4202802;28;20232;-65
2023/10/08 04:12:44;;;;;;;9.03;2.27;;;;;;;8.90;83.13;99941.69;4212841;28;22253;-64
2023/10/08 04:15:16;;;;;;;8.63;1.77;;;;;;;9.02;80.40;99952.16;4207684;28;20549;-64
2023/10/08 04:17:44;;;;;;;3.63;1.67;;;;;;;9.11;79.29;99949.56;4206269;28;21620;-67
2023/10/08 04:23:05;;;;;;;4.87;1.40;;;;;;;8.74;79.28;99963.94;4212527;28;20247;-64
2023/10/08 04:25:32;;;;;;;4.90;1.40;;;;;;;8.69;79.07;99969.78;4210353;28;20434;-63
2023/10/08 04:28:00;;;;;;;7.90;1.00;;;;;;;8.70;78.62;99975.00;4209188;28;20247;-63
2023/10/08 04:30:32;;;;;;;4.10;1.10;;;;;;;8.57;77.50;99978.03;4214085;28;21182;-64
2023/10/08 04:33:06;;;;;;;3.40;1.00;;;;;;;8.62;77.54;99982.97;4213881;28;20244;-65
2023/10/08 04:35:47;;;;;;;3.03;1.30;;;;;;;8.47;77.28;99992.53;4210553;28;20236;-65
2023/10/08 04:38:18;;;;;;;5.57;1.10;;;;;;;8.46;77.56;99985.44;4214207;28;21573;-64
2023/10/08 04:40:48;;;;;;;3.50;1.10;;;;;;;8.46;76.84;99983.56;4212214;28;21579;-64
2023/10/08 04:43:25;;;;;;;4.27;1.10;;;;;;;8.48;76.40;99988.84;4209493;28;20235;-64
2023/10/08 04:45:52;;;;;;;4.03;1.17;;;;;;;8.48;75.66;99980.75;4212168;28;20231;-64
2023/10/08 04:48:23;;;;;;;2.13;0.90;;;;;;;8.39;75.60;99995.94;4210178;28;20261;-67
2023/10/08 04:50:58;;;;;;;6.33;1.20;;;;;;;8.34;75.27;99999.06;4210325;28;20235;-65
2023/10/08 04:53:36;;;;;;;2.87;0.97;;;;;;;8.25;75.48;100011.56;4215355;28;20231;-65
2023/10/08 04:56:06;;;;;;;3.00;1.10;;;;;;;8.30;74.93;100003.06;4215322;28;20224;-64
2023/10/08 04:58:36;;;;;;;4.90;1.00;;;;;;;8.08;75.78;100021.19;4214741;28;22149;-64
2023/10/08 05:17:09;;;;;;;3.83;0.90;;;;;;;7.84;76.20;100026.16;4215314;28;20620;-64
2023/10/08 05:23:20;;;;;;;2.77;1.30;;;;;;;7.85;76.33;100046.75;4218182;28;20237;-66
2023/10/08 05:30:41;;;;;;;3.00;1.00;;;;;;;7.77;76.46;100056.38;4237887;28;21966;-65
2023/10/08 05:33:25;;;;;;;2.20;1.20;;;;;;;7.60;77.24;100054.34;4209979;28;20876;-67
2023/10/08 05:38:48;;;;;;;1.77;0.80;;;;;;;7.84;76.21;100072.81;4213280;28;20236;-65
2023/10/08 05:41:28;;;;;;;7.70;0.90;;;;;;;7.73;76.72;100075.66;4216542;28;20270;-65
2023/10/08 05:44:14;;;;;;;3.10;0.93;;;;;;;7.67;76.52;100085.13;4205797;28;20346;-64
2023/10/08 05:46:56;;;;;;;6.00;0.90;;;;;;;7.66;76.54;100088.81;4222766;28;20348;-65
2023/10/08 06:13:04;;;;;;;8.33;1.27;;;;;;;7.95;71.31;100155.41;4214371;28;20235;-63
2023/10/08 06:18:14;;;;;;;2.23;0.93;;;;;;;8.12;70.58;100164.66;4227426;28;25797;-63
2023/10/08 06:20:45;;;;;;;1.03;0.70;;;;;;;8.10;69.17;100169.34;4217402;28;20273;-66
2023/10/08 06:23:15;;;;;;;3.77;1.00;;;;;;;7.99;69.50;100174.84;4212847;28;20232;-63
2023/10/08 06:25:45;;;;;;;1.73;0.70;;;;;;;8.15;68.65;100182.44;4237624;28;20240;-64
2023/10/08 06:28:20;;;;;;;3.63;0.80;;;;;;;8.09;69.09;100190.06;4218588;28;20240;-64
2023/10/08 06:30:48;;;;;;;3.23;0.90;;;;;;;8.02;68.68;100201.53;4213647;28;20292;-65
2023/10/08 06:33:18;;;;;;;2.23;0.60;;;;;;;8.02;68.58;100205.06;4203547;28;20350;-67
2023/10/08 06:36:01;;;;;;;5.80;0.80;;;;;;;7.93;68.09;100211.31;4212495;28;25513;-63
2023/10/08 06:38:32;;;;;;;1.67;0.60;;;;;;;8.08;67.51;100209.91;4212348;28;20336;-63
2023/10/08 06:43:49;;;;;;;1.70;0.50;;;;;;;8.07;66.45;100210.06;4214377;28;22262;-65
2023/10/08 06:46:18;;;;;;;4.13;0.90;;;;;;;8.12;65.80;100223.97;4206604;28;21628;-65
2023/10/08 06:48:46;;;;;;;3.47;0.80;;;;;;;8.11;65.77;100225.00;4212576;28;20243;-65
2023/10/08 06:51:13;;;;;;;4.00;0.87;;;;;;;8.31;64.63;100235.81;4216249;28;25490;-65
2023/10/08 06:53:45;;;;;;;1.87;0.80;;;;;;;8.40;64.04;100246.63;4207538;28;20361;-66
2023/10/08 06:56:15;;;;;;;1.27;0.53;;;;;;;8.16;63.74;100243.44;4222342;28;20239;-64
2023/10/08 06:58:49;;;;;;;3.63;0.93;;;;;;;8.15;63.20;100244.44;4211451;28;21177;-64
2023/10/08 07:01:24;;;;;;;3.07;0.53;;;;;;;8.11;62.71;100234.91;4203736;28;20421;-67
2023/10/08 07:03:52;;;;;;;1.93;0.60;;;;;;;8.37;62.41;100256.84;4250369;28;20302;-66
2023/10/08 07:06:31;;;;;;;3.87;0.90;;;;;;;8.23;62.25;100255.41;4219797;28;20937;-67
2023/10/08 07:08:59;;;;;;;2.57;0.70;;;;;;;8.31;62.67;100250.16;4212025;28;21894;-67
2023/10/08 07:11:26;;;;;;;3.03;0.70;;;;;;;8.43;62.40;100267.06;4206348;28;20258;-67
2023/10/08 07:13:55;;;;;;;2.10;0.70;;;;;;;8.57;61.17;100271.28;4219371;28;20240;-65
2023/10/08 07:16:22;;;;;;;2.03;0.70;;;;;;;8.68;60.15;100267.59;4207887;28;20240;-67
2023/10/08 07:18:52;;;;;;;3.27;0.80;;;;;;;9.02;59.50;100272.63;4208123;28;20231;-66
2023/10/08 07:21:23;;;;;;;4.60;0.80;;;;;;;9.42;57.26;100274.28;4221163;28;20224;-67
2023/10/08 07:23:56;;;;;;;4.30;0.63;;;;;;;10.97;54.77;100283.81;4243423;28;22153;-67
2023/10/08 07:26:37;;;;;;;2.70;0.70;;;;;;;12.85;47.88;100259.84;4228617;28;20224;-64
2023/10/08 07:29:08;;;;;;;6.40;0.70;;;;;;;14.20;42.63;100278.50;4209617;28;20233;-67
2023/10/08 07:31:41;;;;;;;4.57;0.80;;;;;;;15.60;40.16;100289.59;4210408;28;20290;-65
2023/10/08 07:34:18;;;;;;;2.97;0.60;;;;;;;18.17;36.13;100282.31;4223909;28;21086;-64
2023/10/08 07:36:47;;;;;;;;;;;;;;;16.93;35.65;100300.81;4251773;28;20054;-66
2023/10/08 07:39:33;;;;;;;;;;;;;;;16.98;35.28;100302.97;4240435;28;20118;-66
2023/10/08 07:42:02;;;;;;;;;;;;;;;16.57;36.44;100307.91;4251178;28;19994;-68
2023/10/08 07:44:30;;;;;;;;;;;;;;;16.63;36.97;100309.88;4230106;28;19930;-66
2023/10/08 07:47:00;;;;;;;;;;;;;;;17.57;34.43;100319.16;4274875;28;20263;-65
2023/10/08 07:49:29;;;;;;;;;;;;;;;14.96;39.03;100328.94;4272948;28;21381;-69
2023/10/08 07:51:59;;;;;;;1.43;0.63;;;;;;;17.02;35.53;100326.13;4280077;28;20902;-69
2023/10/08 07:54:29;;;;;;;2.50;0.70;;;;;;;19.06;32.23;100321.78;4199757;28;20355;-69
2023/10/08 07:57:12;;;;;;;1.23;0.60;;;;;;;17.37;33.62;100313.47;4212383;28;20238;-68
2023/10/08 07:59:46;;;;;;;1.30;0.47;;;;;;;16.91;35.33;100322.00;4260183;28;20235;-68
2023/10/08 08:02:17;;;;;;;2.57;0.70;;;;;;;17.93;33.45;100319.22;4227508;28;20238;-68
2023/10/08 08:04:45;;;;;;;2.03;0.50;;;;;;;19.96;31.59;100328.91;4230902;28;20421;-69
2023/10/08 08:07:16;;;;;;;2.93;0.63;;;;;;;19.10;31.70;100330.44;4237690;28;20352;-71
2023/10/08 08:09:51;;;;;;;4.40;0.70;;;;;;;18.12;33.05;100331.41;4245409;28;21041;-67
2023/10/08 08:12:25;;;;;;;2.05;0.73;;;;;;;18.90;31.94;100333.94;4218859;28;20399;-68
2023/10/08 08:14:52;;;;;;;3.08;0.90;;;;;;;17.64;33.87;100341.09;4216341;28;22700;-73
2023/10/08 08:17:19;;;;;;;3.10;0.90;;;;;;;17.00;33.95;100352.81;4215740;28;20241;-66
2023/10/08 08:19:48;;;;;;;2.37;0.73;;;;;;;15.84;36.05;100346.75;4208564;28;20527;-68
2023/10/08 08:22:30;;;;;;;1.67;0.70;;;;;;;16.42;35.36;100357.09;4218981;28;20679;-72
2023/10/08 08:25:15;;;;;;;2.50;0.73;;;;;;;17.63;33.80;100342.16;4207836;28;20231;-69
2023/10/08 08:27:49;;;;;;;4.03;0.90;;;;;;;19.15;31.51;100360.84;4201745;28;20248;-67
2023/10/08 08:30:15;;;;;;;2.67;0.70;;;;;;;17.31;33.15;100352.56;4218007;28;20614;-71
2023/10/08 08:32:47;;;;;;;4.97;1.30;;;;;;;17.33;33.79;100366.03;4218962;28;20232;-68
2023/10/08 08:35:19;;;;;;;2.93;0.77;;;;;;;17.15;32.90;100355.53;4211666;28;20383;-67
2023/10/08 08:37:47;;;;;;;3.47;0.80;;;;;;;16.35;34.74;100364.38;4214600;28;20235;-71
2023/10/08 08:40:19;;;;;;;1.53;0.60;;;;;;;14.76;36.65;100364.81;4219097;28;20228;-69
2023/10/08 08:42:50;;;;;;;2.43;0.67;;;;;;;13.88;38.57;100366.53;4227038;28;21668;-72
2023/10/08 08:45:27;;;;;;;2.40;1.00;;;;;;;13.20;40.62;100353.00;4227717;28;20809;-69
2023/10/08 08:47:55;;;;;;;0.70;0.50;;;;;;;12.87;41.26;100365.63;4227934;28;21005;-68
2023/10/08 08:50:23;;;;;;;1.33;0.60;;;;;;;12.46;42.74;100374.44;4248892;28;21638;-72
2023/10/08 08:52:51;;;;;;;4.90;0.97;;;;;;;12.02;44.23;100376.22;4223974;28;21681;-69
2023/10/08 08:55:20;;;;;;;3.63;0.77;;;;;;;12.44;42.55;100376.47;4216067;28;20235;-70
2023/10/08 08:57:50;;;;;;;4.40;0.60;;;;;;;12.97;42.54;100375.34;4243214;28;20681;-69
2023/10/08 09:00:18;;;;;;;3.07;0.90;;;;;;;13.68;41.49;100379.59;4251715;28;20256;-72
2023/10/08 09:02:47;;;;;;;3.43;0.83;;;;;;;13.26;41.76;100378.66;4243969;28;25678;-70
2023/10/08 09:05:25;;;;;;;3.50;0.80;;;;;;;13.10;41.61;100380.31;4216941;28;22867;-69
2023/10/08 09:08:04;;;;;;;1.57;0.50;;;;;;;13.15;41.99;100387.97;4235645;28;20329;-66
2023/10/08 09:10:36;;;;;;;2.73;0.70;;;;;;;12.73;42.37;100391.53;4223323;28;20241;-72
2023/10/08 09:13:05;;;;;;;3.33;0.70;;;;;;;12.31;42.34;100395.94;4219356;28;21398;-70
2023/10/08 09:15:32;;;;;;;4.50;0.90;;;;;;;12.21;42.64;100401.44;4214729;28;20295;-70
2023/10/08 09:18:00;;;;;;;2.27;0.77;;;;;;;12.13;42.95;100399.53;4225533;28;20230;-69
2023/10/08 09:20:31;;;;;;;1.87;0.63;;;;;;;12.15;42.55;100402.06;4236175;28;20593;-68
2023/10/08 09:23:21;;;;;;;5.30;0.80;;;;;;;11.62;42.91;100411.97;4234058;28;20239;-71
2023/10/08 09:25:49;;;;;;;3.10;0.70;;;;;;;11.44;44.27;100401.13;4223143;28;20236;-73
2023/10/08 09:28:17;;;;;;;1.70;0.57;;;;;;;11.51;43.80;100402.19;4228421;28;20228;-72
2023/10/08 09:30:45;;;;;;;3.33;0.80;;;;;;;11.71;43.17;100403.75;4219845;28;20588;-72
2023/10/08 09:33:13;;;;;;;3.13;0.90;;;;;;;11.32;44.38;100406.75;4207199;28;20237;-72
2023/10/08 09:35:41;;;;;;;1.43;0.60;;;;;;;11.64;44.18;100413.50;4231897;28;20228;-71
2023/10/08 09:38:15;;;;;;;3.60;0.50;;;;;;;11.34;44.72;100421.00;4278832;28;20629;-70
2023/10/08 09:40:43;;;;;;;3.23;0.80;;;;;;;11.48;43.72;100405.22;4248660;28;20376;-69
2023/10/08 09:43:12;;;;;;;3.30;0.70;;;;;;;11.49;43.33;100415.06;4218143;28;20586;-70
2023/10/08 09:45:47;;;;;;;1.00;0.50;;;;;;;11.11;43.40;100425.97;4236502;28;22067;-71
2023/10/08 09:48:18;;;;;;;2.70;0.60;;;;;;;11.25;43.53;100433.59;4227483;28;20248;-74
2023/10/08 09:50:47;;;;;;;2.43;0.40;;;;;;;11.00;44.19;100428.91;4226264;28;20396;-71
2023/10/08 09:53:17;;;;;;;3.33;0.60;;;;;;;11.04;44.29;100428.47;4230233;28;20233;-73
2023/10/08 09:55:54;;;;;;;2.43;0.80;;;;;;;11.30;43.69;100433.13;4222863;28;20616;-74
2023/10/08 09:58:24;;;;;;;1.70;0.60;;;;;;;11.38;42.76;100432.38;4224884;28;22549;-71
2023/10/08 10:00:53;;;;;;;4.70;0.60;;;;;;;11.33;43.63;100429.28;4255084;28;20236;-72
2023/10/08 10:03:26;;;;;;;1.90;0.60;;;;;;;11.47;42.61;100433.31;4197228;28;20248;-72
2023/10/08 10:05:59;;;;;;;1.57;0.67;;;;;;;11.73;42.26;100439.69;4230233;28;20236;-73
2023/10/08 10:08:30;;;;;;;2.47;0.70;;;;;;;11.84;40.94;100449.47;4215055;28;20355;-71
2023/10/08 10:11:00;;;;;;;1.07;0.57;;;;;;;11.80;41.00;100445.34;4252188;28;20571;-73
2023/10/08 10:13:48;;;;;;;2.53;1.27;;;;;;;11.58;42.27;100436.66;4238170;28;22883;-71
2023/10/08 10:16:24;;;;;;;1.83;0.77;;;;;;;11.26;42.51;100445.31;4248585;28;21664;-70
2023/10/08 10:19:00;;;;;;;1.33;0.50;;;;;;;10.70;43.18;100449.84;4242310;28;20720;-73
2023/10/08 10:21:32;;;;;;;1.60;0.60;;;;;;;10.95;42.74;100456.44;4227339;28;21857;-70
2023/10/08 10:24:00;;;;;;;3.97;0.77;;;;;;;11.36;42.15;100450.66;4233182;28;20603;-67
2023/10/08 10:26:31;;;;;;;1.60;0.70;;;;;;;11.31;43.43;100445.69;4227387;28;20509;-68
2023/10/08 10:29:07;;;;;;;4.37;0.60;;;;;;;11.28;43.18;100442.44;4241242;28;20312;-68
2023/10/08 10:31:34;;;;;;;1.60;0.73;;;;;;;11.08;41.26;100446.09;4242214;28;20243;-68
2023/10/08 10:34:09;;;;;;;2.47;0.60;;;;;;;10.95;41.38;100442.91;4216696;28;20452;-70
2023/10/08 10:36:40;;;;;;;3.60;0.67;;;;;;;11.06;41.06;100440.00;4247520;28;20228;-69
2023/10/08 10:39:15;;;;;;;6.60;0.70;;;;;;;11.38;40.76;100444.06;4225565;28;22362;-68
2023/10/08 10:41:48;;;;;;;2.73;0.70;;;;;;;11.43;40.75;100442.78;4217575;28;20413;-72
2023/10/08 10:44:16;;;;;;;1.90;0.63;;;;;;;11.62;41.39;100436.38;4237111;28;20801;-68
2023/10/08 10:46:50;;;;;;;1.90;0.87;;;;;;;11.49;42.53;100442.16;4228681;28;20275;-70
2023/10/08 10:49:21;;;;;;;3.17;0.90;;;;;;;11.89;42.06;100444.41;4239627;28;20242;-70
2023/10/08 10:51:57;;;;;;;5.00;0.70;;;;;;;11.81;41.51;100441.63;4225772;28;20227;-69
2023/10/08 10:54:24;;;;;;;4.90;0.83;;;;;;;12.14;41.34;100450.09;4239336;28;20239;-70
2023/10/08 10:57:16;;;;;;;2.60;0.53;;;;;;;11.67;39.28;100442.16;4225703;28;20237;-69
2023/10/08 10:59:52;;;;;;;2.87;0.80;;;;;;;11.81;40.12;100443.50;4224298;28;20231;-70
2023/10/08 11:02:30;;;;;;;2.30;0.40;;;;;;;12.05;40.14;100446.44;4247355;28;20475;-71
2023/10/08 11:05:08;;;;;;;1.50;0.60;;;;;;;12.22;39.63;100446.56;4221937;28;20461;-71
2023/10/08 11:07:37;;;;;;;3.23;0.70;;;;;;;12.19;38.01;100441.47;4244672;28;20298;-69
2023/10/08 11:10:09;;;;;;;1.47;0.50;;;;;;;11.86;38.67;100455.56;4211988;28;20239;-69
2023/10/08 11:12:46;;;;;;;2.13;0.80;;;;;;;11.96;37.13;100463.66;4219923;28;20366;-72
2023/10/08 11:15:16;;;;;;;1.47;0.70;;;;;;;11.63;38.01;100457.06;4216880;28;20292;-69
2023/10/08 11:17:47;;;;;;;1.20;0.50;;;;;;;11.73;37.26;100457.81;4215659;28;21151;-71
2023/10/08 11:20:27;;;;;;;6.37;1.13;;;;;;;11.56;37.30;100464.94;4207947;28;22294;-71
2023/10/08 11:22:55;;;;;;;2.33;1.00;;;;;;;11.51;37.33;100462.69;4211186;28;20270;-71
2023/10/08 11:25:27;;;;;;;1.40;0.60;;;;;;;11.69;38.25;100470.84;4228267;28;26198;-71
2023/10/08 11:28:01;;;;;;;3.33;0.63;;;;;;;11.21;38.26;100466.59;4219251;28;20765;-70
2023/10/08 11:30:31;;;;;;;5.17;0.80;;;;;;;11.47;38.08;100465.84;4215345;28;20681;-69
2023/10/08 11:32:59;;;;;;;2.73;0.70;;;;;;;11.44;37.51;100464.31;4255069;28;20270;-69
2023/10/08 11:35:33;;;;;;;2.40;0.40;;;;;;;11.58;38.11;100463.78;4213958;28;20613;-70
2023/10/08 11:38:02;;;;;;;1.20;0.60;;;;;;;11.58;37.52;100466.47;4221987;28;20801;-70
2023/10/08 11:40:34;;;;;;;1.60;0.50;;;;;;;11.79;37.68;100475.34;4225168;28;21690;-73
2023/10/08 11:43:03;;;;;;;2.67;0.63;;;;;;;11.56;36.28;100463.06;4231611;28;20296;-70
2023/10/08 11:45:38;;;;;;;1.70;0.80;;;;;;;11.46;37.19;100474.97;4226422;28;20236;-68
2023/10/08 11:48:11;;;;;;;1.03;0.60;;;;;;;11.67;36.79;100466.56;4204516;28;20246;-70
2023/10/08 11:50:40;;;;;;;3.27;0.60;;;;;;;11.81;37.23;100473.34;4227238;28;20361;-69
2023/10/08 11:53:08;;;;;;;6.23;0.70;;;;;;;11.88;36.56;100474.41;4236413;28;20233;-69
2023/10/08 11:55:38;;;;;;;3.07;0.87;;;;;;;11.89;36.66;100466.13;4239848;28;23005;-71
2023/10/08 11:58:17;;;;;;;3.53;0.70;;;;;;;11.63;36.64;100479.59;4212657;28;21160;-69
2023/10/08 12:00:45;;;;;;;1.80;0.70;;;;;;;11.45;36.98;100474.13;4241724;28;20391;-71
2023/10/08 12:03:18;;;;;;;2.00;0.70;;;;;;;11.68;36.50;100479.13;4239520;28;21960;-70
2023/10/08 12:05:52;;;;;;;3.37;0.70;;;;;;;12.16;36.53;100477.91;4248466;28;20231;-71
2023/10/08 12:08:20;;;;;;;3.43;1.00;;;;;;;12.40;36.81;100480.97;4222762;28;20240;-70
2023/10/08 12:10:48;;;;;;;1.83;0.73;;;;;;;12.40;35.64;100478.25;4241872;28;25291;-69
2023/10/08 12:13:18;;;;;;;1.00;0.60;;;;;;;12.54;35.12;100488.53;4256991;28;20318;-71
2023/10/08 12:15:47;;;;;;;2.53;0.70;;;;;;;12.26;34.49;100496.84;4224477;28;21293;-69
2023/10/08 12:18:26;;;;;;;3.73;0.90;;;;;;;12.27;34.42;100484.97;4227249;28;20244;-71
2023/10/08 12:20:56;;;;;;;7.43;0.87;;;;;;;12.12;35.24;100475.69;4264726;28;20321;-71
2023/10/08 12:23:25;;;;;;;3.40;0.90;;;;;;;11.93;35.11;100488.34;4225137;28;22061;-71
2023/10/08 12:25:55;;;;;;;2.80;0.80;;;;;;;11.73;35.17;100479.50;4225661;28;20249;-71
2023/10/08 12:28:23;;;;;;;4.30;0.97;;;;;;;12.15;34.94;100497.06;4225038;28;20244;-71
2023/10/08 12:30:55;;;;;;;3.40;0.80;;;;;;;12.07;33.76;100488.84;4255986;28;20234;-71
2023/10/08 12:33:26;;;;;;;6.50;0.80;;;;;;;11.86;33.97;100471.84;4257000;28;20240;-71
2023/10/08 12:35:55;;;;;;;3.53;0.77;;;;;;;11.96;34.50;100484.47;4265107;28;20418;-69
2023/10/08 12:38:23;;;;;;;4.53;0.80;;;;;;;12.24;34.59;100489.81;4241242;28;21065;-69
2023/10/08 12:40:52;;;;;;;3.90;0.83;;;;;;;11.88;35.63;100480.69;4206518;28;21529;-72
2023/10/08 12:43:27;;;;;;;3.67;0.70;;;;;;;11.88;36.14;100502.38;4230275;28;20956;-70
2023/10/08 12:45:56;;;;;;;1.97;0.63;;;;;;;11.82;36.16;100484.00;4236751;28;21338;-72
2023/10/08 12:48:27;;;;;;;6.60;0.70;;;;;;;12.09;35.67;100481.41;4231642;28;20315;-71
2023/10/08 12:51:00;;;;;;;2.17;0.80;;;;;;;12.35;35.45;100489.59;4225315;28;20314;-68
2023/10/08 12:53:38;;;;;;;1.43;0.80;;;;;;;12.27;35.40;100500.38;4232250;28;20246;-71
2023/10/08 12:56:07;;;;;;;2.10;0.70;;;;;;;12.21;35.25;100493.72;4227157;28;21826;-68
2023/10/08 12:58:41;;;;;;;6.73;0.83;;;;;;;11.79;36.26;100503.28;4217162;28;20313;-70